sensor_id;sensor_type;location;lat;lon;timestamp;temperature;humidity
45765;DHT22;31474;45.332;10.230;2023-09-07T00:01:26;22.30;99.90
45765;DHT22;31474;45.332;10.230;2023-09-07T00:03:52;22.20;99.90
45765;DHT22;31474;45.332;10.230;2023-09-07T00:06:17;22.20;99.90
45765;DHT22;31474;45.332;10.230;2023-09-07T00:08:43;22.20;99.90
45765;DHT22;31474;45.332;10.230;2023-09-07T00:11:09;22.10;99.90
45765;DHT22;31474;45.332;10.230;2023-09-07T00:13:36;22.10;99.90
45765;DHT22;31474;45.332;10.230;2023-09-07T00:16:03;22.10;99.90
45765;DHT22;31474;45.332;10.230;2023-09-07T00:18:29;22.10;99.90
45765;DHT22;31474;45.332;10.230;2023-09-07T00:20:55;22.10;99.90
45765;DHT22;31474;45.332;10.230;2023-09-07T00:23:21;22.10;99.90
45765;DHT22;31474;45.332;10.230;2023-09-07T00:25:47;22.00;99.90
45765;DHT22;31474;45.332;10.230;2023-09-07T00:28:12;22.00;99.90
45765;DHT22;31474;45.332;10.230;2023-09-07T00:30:38;22.00;99.90
45765;DHT22;31474;45.332;10.230;2023-09-07T00:33:04;22.00;99.90
45765;DHT22;31474;45.332;10.230;2023-09-07T00:35:30;22.00;99.90
45765;DHT22;31474;45.332;10.230;2023-09-07T00:37:56;21.90;99.90
45765;DHT22;31474;45.332;10.230;2023-09-07T00:40:22;21.90;99.90
45765;DHT22;31474;45.332;10.230;2023-09-07T00:42:48;21.90;99.90
45765;DHT22;31474;45.332;10.230;2023-09-07T00:45:14;21.90;99.90
45765;DHT22;31474;45.332;10.230;2023-09-07T00:47:40;21.90;99.90
45765;DHT22;31474;45.332;10.230;2023-09-07T00:50:06;21.90;99.90
45765;DHT22;31474;45.332;10.230;2023-09-07T00:52:33;21.80;99.90
45765;DHT22;31474;45.332;10.230;2023-09-07T00:55:01;21.70;99.90
45765;DHT22;31474;45.332;10.230;2023-09-07T00:57:27;21.60;99.90
45765;DHT22;31474;45.332;10.230;2023-09-07T00:59:53;21.60;99.90
45765;DHT22;31474;45.332;10.230;2023-09-07T01:02:19;21.70;99.90
45765;DHT22;31474;45.332;10.230;2023-09-07T01:04:45;21.70;99.90
45765;DHT22;31474;45.332;10.230;2023-09-07T01:10:11;21.80;99.90
45765;DHT22;31474;45.332;10.230;2023-09-07T01:12:39;21.80;99.90
45765;DHT22;31474;45.332;10.230;2023-09-07T01:15:05;21.80;99.90
45765;DHT22;31474;45.332;10.230;2023-09-07T01:17:31;21.80;99.90
45765;DHT22;31474;45.332;10.230;2023-09-07T01:19:59;21.80;99.90
45765;DHT22;31474;45.332;10.230;2023-09-07T01:22:30;21.70;99.90
45765;DHT22;31474;45.332;10.230;2023-09-07T01:24:56;21.70;99.90
45765;DHT22;31474;45.332;10.230;2023-09-07T01:27:24;21.70;99.90
45765;DHT22;31474;45.332;10.230;2023-09-07T01:29:51;21.70;99.90
45765;DHT22;31474;45.332;10.230;2023-09-07T01:32:16;21.60;99.90
45765;DHT22;31474;45.332;10.230;2023-09-07T01:34:42;21.50;99.90
45765;DHT22;31474;45.332;10.230;2023-09-07T01:37:08;21.50;99.90
45765;DHT22;31474;45.332;10.230;2023-09-07T01:39:33;21.50;99.90
45765;DHT22;31474;45.332;10.230;2023-09-07T01:41:59;21.50;99.90
45765;DHT22;31474;45.332;10.230;2023-09-07T01:44:24;21.50;99.90
45765;DHT22;31474;45.332;10.230;2023-09-07T01:46:52;21.50;99.90
45765;DHT22;31474;45.332;10.230;2023-09-07T01:49:18;21.50;99.90
45765;DHT22;31474;45.332;10.230;2023-09-07T01:51:43;21.40;99.90
45765;DHT22;31474;45.332;10.230;2023-09-07T01:54:09;21.50;99.90
45765;DHT22;31474;45.332;10.230;2023-09-07T01:56:35;21.50;99.90
45765;DHT22;31474;45.332;10.230;2023-09-07T01:59:01;21.40;99.90
45765;DHT22;31474;45.332;10.230;2023-09-07T02:01:33;21.40;99.90
45765;DHT22;31474;45.332;10.230;2023-09-07T02:04:02;21.30;99.90
45765;DHT22;31474;45.332;10.230;2023-09-07T02:06:28;21.30;99.90
45765;DHT22;31474;45.332;10.230;2023-09-07T02:08:53;21.30;99.90
45765;DHT22;31474;45.332;10.230;2023-09-07T02:11:19;21.30;99.90
45765;DHT22;31474;45.332;10.230;2023-09-07T02:13:47;21.30;99.90
45765;DHT22;31474;45.332;10.230;2023-09-07T02:16:12;21.30;99.90
45765;DHT22;31474;45.332;10.230;2023-09-07T02:18:38;21.30;99.90
45765;DHT22;31474;45.332;10.230;2023-09-07T02:21:09;21.30;99.90
45765;DHT22;31474;45.332;10.230;2023-09-07T02:23:35;21.30;99.90
45765;DHT22;31474;45.332;10.230;2023-09-07T02:26:03;21.30;99.90
45765;DHT22;31474;45.332;10.230;2023-09-07T02:28:29;21.30;99.90
45765;DHT22;31474;45.332;10.230;2023-09-07T02:31:01;21.30;99.90
45765;DHT22;31474;45.332;10.230;2023-09-07T02:33:27;21.30;99.90
45765;DHT22;31474;45.332;10.230;2023-09-07T02:35:53;21.30;99.90
45765;DHT22;31474;45.332;10.230;2023-09-07T02:38:19;21.20;99.90
45765;DHT22;31474;45.332;10.230;2023-09-07T02:40:45;21.20;99.90
45765;DHT22;31474;45.332;10.230;2023-09-07T02:43:11;21.20;99.90
45765;DHT22;31474;45.332;10.230;2023-09-07T02:45:38;21.20;99.90
45765;DHT22;31474;45.332;10.230;2023-09-07T02:48:04;21.20;99.90
45765;DHT22;31474;45.332;10.230;2023-09-07T02:50:31;21.20;99.90
45765;DHT22;31474;45.332;10.230;2023-09-07T02:52:57;21.20;99.90
45765;DHT22;31474;45.332;10.230;2023-09-07T02:55:23;21.20;99.90
45765;DHT22;31474;45.332;10.230;2023-09-07T02:57:49;21.20;99.90
45765;DHT22;31474;45.332;10.230;2023-09-07T03:00:14;21.20;99.90
45765;DHT22;31474;45.332;10.230;2023-09-07T03:02:45;21.20;99.90
45765;DHT22;31474;45.332;10.230;2023-09-07T03:05:11;21.20;99.90
45765;DHT22;31474;45.332;10.230;2023-09-07T03:07:37;21.20;99.90
45765;DHT22;31474;45.332;10.230;2023-09-07T03:10:05;21.10;99.90
45765;DHT22;31474;45.332;10.230;2023-09-07T03:12:30;21.10;99.90
45765;DHT22;31474;45.332;10.230;2023-09-07T03:14:56;21.10;99.90
45765;DHT22;31474;45.332;10.230;2023-09-07T03:17:22;21.10;99.90
45765;DHT22;31474;45.332;10.230;2023-09-07T03:19:47;21.10;99.90
45765;DHT22;31474;45.332;10.230;2023-09-07T03:22:13;21.10;99.90
45765;DHT22;31474;45.332;10.230;2023-09-07T03:24:39;21.10;99.90
45765;DHT22;31474;45.332;10.230;2023-09-07T03:27:05;21.10;99.90
45765;DHT22;31474;45.332;10.230;2023-09-07T03:29:31;21.00;99.90
45765;DHT22;31474;45.332;10.230;2023-09-07T03:31:59;21.00;99.90
45765;DHT22;31474;45.332;10.230;2023-09-07T03:34:25;21.00;99.90
45765;DHT22;31474;45.332;10.230;2023-09-07T03:36:51;21.00;99.90
45765;DHT22;31474;45.332;10.230;2023-09-07T03:39:16;21.00;99.90
45765;DHT22;31474;45.332;10.230;2023-09-07T03:41:44;20.90;99.90
45765;DHT22;31474;45.332;10.230;2023-09-07T03:44:10;20.90;99.90
45765;DHT22;31474;45.332;10.230;2023-09-07T03:46:35;20.90;99.90
45765;DHT22;31474;45.332;10.230;2023-09-07T03:49:01;20.90;99.90
45765;DHT22;31474;45.332;10.230;2023-09-07T03:51:27;20.90;99.90
45765;DHT22;31474;45.332;10.230;2023-09-07T03:53:52;20.90;99.90
45765;DHT22;31474;45.332;10.230;2023-09-07T03:56:18;20.90;99.90
45765;DHT22;31474;45.332;10.230;2023-09-07T03:58:44;20.90;99.90
45765;DHT22;31474;45.332;10.230;2023-09-07T04:01:09;20.80;99.90
45765;DHT22;31474;45.332;10.230;2023-09-07T04:03:35;20.70;99.90
45765;DHT22;31474;45.332;10.230;2023-09-07T04:06:01;20.70;99.90
45765;DHT22;31474;45.332;10.230;2023-09-07T04:08:26;20.60;99.90
45765;DHT22;31474;45.332;10.230;2023-09-07T04:10:52;20.60;99.90
45765;DHT22;31474;45.332;10.230;2023-09-07T04:13:18;20.50;99.90
45765;DHT22;31474;45.332;10.230;2023-09-07T04:15:44;20.50;99.90
45765;DHT22;31474;45.332;10.230;2023-09-07T04:18:11;20.60;99.90
45765;DHT22;31474;45.332;10.230;2023-09-07T04:20:38;20.50;99.90
45765;DHT22;31474;45.332;10.230;2023-09-07T04:23:05;20.50;99.90
45765;DHT22;31474;45.332;10.230;2023-09-07T04:25:30;20.50;99.90
45765;DHT22;31474;45.332;10.230;2023-09-07T04:27:58;20.50;99.90
45765;DHT22;31474;45.332;10.230;2023-09-07T04:30:23;20.50;99.90
45765;DHT22;31474;45.332;10.230;2023-09-07T04:32:49;20.50;99.90
45765;DHT22;31474;45.332;10.230;2023-09-07T04:35:15;20.40;99.90
45765;DHT22;31474;45.332;10.230;2023-09-07T04:37:44;20.40;99.90
45765;DHT22;31474;45.332;10.230;2023-09-07T04:40:10;20.40;99.90
45765;DHT22;31474;45.332;10.230;2023-09-07T04:42:37;20.40;99.90
45765;DHT22;31474;45.332;10.230;2023-09-07T04:45:05;20.60;99.90
45765;DHT22;31474;45.332;10.230;2023-09-07T04:47:30;20.60;99.90
45765;DHT22;31474;45.332;10.230;2023-09-07T04:49:56;20.50;99.90
45765;DHT22;31474;45.332;10.230;2023-09-07T04:52:22;20.50;99.90
45765;DHT22;31474;45.332;10.230;2023-09-07T04:54:47;20.40;99.90
45765;DHT22;31474;45.332;10.230;2023-09-07T04:57:15;20.30;99.90
45765;DHT22;31474;45.332;10.230;2023-09-07T04:59:42;20.30;99.90
45765;DHT22;31474;45.332;10.230;2023-09-07T05:02:08;20.30;99.90
45765;DHT22;31474;45.332;10.230;2023-09-07T05:04:33;20.30;99.90
45765;DHT22;31474;45.332;10.230;2023-09-07T05:06:59;20.30;99.90
45765;DHT22;31474;45.332;10.230;2023-09-07T05:09:25;20.20;99.90
45765;DHT22;31474;45.332;10.230;2023-09-07T05:11:51;20.30;99.90
45765;DHT22;31474;45.332;10.230;2023-09-07T05:14:18;20.30;99.90
45765;DHT22;31474;45.332;10.230;2023-09-07T05:16:43;20.40;99.90
45765;DHT22;31474;45.332;10.230;2023-09-07T05:19:09;20.40;99.90
45765;DHT22;31474;45.332;10.230;2023-09-07T05:21:35;20.50;99.90
45765;DHT22;31474;45.332;10.230;2023-09-07T05:24:01;20.60;99.90
45765;DHT22;31474;45.332;10.230;2023-09-07T05:26:26;20.60;99.90
45765;DHT22;31474;45.332;10.230;2023-09-07T05:28:52;20.70;99.90
45765;DHT22;31474;45.332;10.230;2023-09-07T05:31:18;20.70;99.90
45765;DHT22;31474;45.332;10.230;2023-09-07T05:33:43;20.70;99.90
45765;DHT22;31474;45.332;10.230;2023-09-07T05:36:09;20.70;99.90
45765;DHT22;31474;45.332;10.230;2023-09-07T05:38:35;20.70;99.90
45765;DHT22;31474;45.332;10.230;2023-09-07T05:41:00;20.70;99.90
45765;DHT22;31474;45.332;10.230;2023-09-07T05:43:26;20.80;99.90
45765;DHT22;31474;45.332;10.230;2023-09-07T05:45:52;20.90;99.90
45765;DHT22;31474;45.332;10.230;2023-09-07T05:48:17;21.00;99.90
45765;DHT22;31474;45.332;10.230;2023-09-07T05:50:43;21.20;99.90
45765;DHT22;31474;45.332;10.230;2023-09-07T05:53:09;21.20;99.90
45765;DHT22;31474;45.332;10.230;2023-09-07T05:55:35;21.40;99.90
45765;DHT22;31474;45.332;10.230;2023-09-07T05:58:04;21.50;99.90
45765;DHT22;31474;45.332;10.230;2023-09-07T06:00:30;21.70;99.90
45765;DHT22;31474;45.332;10.230;2023-09-07T06:02:56;21.80;99.90
45765;DHT22;31474;45.332;10.230;2023-09-07T06:05:21;22.00;99.90
45765;DHT22;31474;45.332;10.230;2023-09-07T06:07:47;22.10;99.90
45765;DHT22;31474;45.332;10.230;2023-09-07T06:10:13;22.20;99.90
45765;DHT22;31474;45.332;10.230;2023-09-07T06:12:39;22.30;99.90
45765;DHT22;31474;45.332;10.230;2023-09-07T06:15:05;22.40;99.90
45765;DHT22;31474;45.332;10.230;2023-09-07T06:17:31;22.60;99.90
45765;DHT22;31474;45.332;10.230;2023-09-07T06:19:57;22.70;99.90
45765;DHT22;31474;45.332;10.230;2023-09-07T06:22:22;22.80;99.90
45765;DHT22;31474;45.332;10.230;2023-09-07T06:24:49;22.90;99.90
45765;DHT22;31474;45.332;10.230;2023-09-07T06:27:14;23.00;99.90
45765;DHT22;31474;45.332;10.230;2023-09-07T06:29:40;23.00;99.90
45765;DHT22;31474;45.332;10.230;2023-09-07T06:32:06;23.10;99.90
45765;DHT22;31474;45.332;10.230;2023-09-07T06:34:32;23.20;99.90
45765;DHT22;31474;45.332;10.230;2023-09-07T06:36:57;23.30;99.90
45765;DHT22;31474;45.332;10.230;2023-09-07T06:39:23;23.30;99.90
45765;DHT22;31474;45.332;10.230;2023-09-07T06:41:49;23.50;99.90
45765;DHT22;31474;45.332;10.230;2023-09-07T06:44:14;23.50;99.90
45765;DHT22;31474;45.332;10.230;2023-09-07T06:46:40;23.60;99.90
45765;DHT22;31474;45.332;10.230;2023-09-07T06:49:06;23.70;99.90
45765;DHT22;31474;45.332;10.230;2023-09-07T06:51:32;23.90;99.90
45765;DHT22;31474;45.332;10.230;2023-09-07T06:53:58;24.00;99.90
45765;DHT22;31474;45.332;10.230;2023-09-07T06:56:24;24.10;99.90
45765;DHT22;31474;45.332;10.230;2023-09-07T06:58:51;24.20;99.90
45765;DHT22;31474;45.332;10.230;2023-09-07T07:01:16;24.30;99.90
45765;DHT22;31474;45.332;10.230;2023-09-07T07:03:42;24.50;99.90
45765;DHT22;31474;45.332;10.230;2023-09-07T07:06:08;24.60;99.90
45765;DHT22;31474;45.332;10.230;2023-09-07T07:08:33;24.80;99.90
45765;DHT22;31474;45.332;10.230;2023-09-07T07:10:59;25.00;99.90
45765;DHT22;31474;45.332;10.230;2023-09-07T07:13:25;25.00;99.90
45765;DHT22;31474;45.332;10.230;2023-09-07T07:15:51;25.10;99.90
45765;DHT22;31474;45.332;10.230;2023-09-07T07:18:17;25.30;99.90
45765;DHT22;31474;45.332;10.230;2023-09-07T07:20:43;25.50;99.60
45765;DHT22;31474;45.332;10.230;2023-09-07T07:23:11;25.60;99.10
45765;DHT22;31474;45.332;10.230;2023-09-07T07:25:38;25.60;99.60
45765;DHT22;31474;45.332;10.230;2023-09-07T07:28:04;25.80;99.30
45765;DHT22;31474;45.332;10.230;2023-09-07T07:30:35;25.90;98.50
45765;DHT22;31474;45.332;10.230;2023-09-07T07:33:06;25.90;98.40
45765;DHT22;31474;45.332;10.230;2023-09-07T07:35:33;26.10;98.70
45765;DHT22;31474;45.332;10.230;2023-09-07T07:38:00;26.30;98.60
45765;DHT22;31474;45.332;10.230;2023-09-07T07:40:26;26.20;98.70
45765;DHT22;31474;45.332;10.230;2023-09-07T07:42:52;26.20;98.20
45765;DHT22;31474;45.332;10.230;2023-09-07T07:45:18;26.30;98.60
45765;DHT22;31474;45.332;10.230;2023-09-07T07:47:49;26.50;98.40
45765;DHT22;31474;45.332;10.230;2023-09-07T07:50:15;26.70;98.80
45765;DHT22;31474;45.332;10.230;2023-09-07T07:52:41;26.90;98.60
45765;DHT22;31474;45.332;10.230;2023-09-07T07:55:07;27.10;98.20
45765;DHT22;31474;45.332;10.230;2023-09-07T07:57:33;27.20;98.00
45765;DHT22;31474;45.332;10.230;2023-09-07T07:59:58;27.30;98.10
45765;DHT22;31474;45.332;10.230;2023-09-07T08:02:24;27.40;97.60
45765;DHT22;31474;45.332;10.230;2023-09-07T08:04:50;27.50;97.60
45765;DHT22;31474;45.332;10.230;2023-09-07T08:07:16;27.70;97.40
45765;DHT22;31474;45.332;10.230;2023-09-07T08:09:42;27.70;97.50
45765;DHT22;31474;45.332;10.230;2023-09-07T08:12:08;27.70;97.00
45765;DHT22;31474;45.332;10.230;2023-09-07T08:14:34;27.80;96.50
45765;DHT22;31474;45.332;10.230;2023-09-07T08:17:00;27.80;97.10
45765;DHT22;31474;45.332;10.230;2023-09-07T08:19:27;27.90;97.70
45765;DHT22;31474;45.332;10.230;2023-09-07T08:21:57;28.00;97.60
45765;DHT22;31474;45.332;10.230;2023-09-07T08:24:23;28.20;97.20
45765;DHT22;31474;45.332;10.230;2023-09-07T08:26:49;28.20;96.40
45765;DHT22;31474;45.332;10.230;2023-09-07T08:29:17;28.20;96.80
45765;DHT22;31474;45.332;10.230;2023-09-07T08:31:46;28.30;97.10
45765;DHT22;31474;45.332;10.230;2023-09-07T08:34:13;28.40;97.20
45765;DHT22;31474;45.332;10.230;2023-09-07T08:36:40;28.40;96.70
45765;DHT22;31474;45.332;10.230;2023-09-07T08:39:06;28.50;96.90
45765;DHT22;31474;45.332;10.230;2023-09-07T08:41:39;28.70;96.20
45765;DHT22;31474;45.332;10.230;2023-09-07T08:44:16;28.50;95.60
45765;DHT22;31474;45.332;10.230;2023-09-07T08:46:43;28.50;95.00
45765;DHT22;31474;45.332;10.230;2023-09-07T08:49:12;28.70;96.40
45765;DHT22;31474;45.332;10.230;2023-09-07T08:51:38;28.90;95.90
45765;DHT22;31474;45.332;10.230;2023-09-07T08:54:05;29.10;96.30
45765;DHT22;31474;45.332;10.230;2023-09-07T08:56:31;29.20;96.20
45765;DHT22;31474;45.332;10.230;2023-09-07T08:58:57;29.40;95.90
45765;DHT22;31474;45.332;10.230;2023-09-07T09:01:23;29.40;95.80
45765;DHT22;31474;45.332;10.230;2023-09-07T09:03:50;29.40;95.90
45765;DHT22;31474;45.332;10.230;2023-09-07T09:06:20;29.60;95.90
45765;DHT22;31474;45.332;10.230;2023-09-07T09:11:14;29.50;95.10
45765;DHT22;31474;45.332;10.230;2023-09-07T09:13:40;29.60;94.80
45765;DHT22;31474;45.332;10.230;2023-09-07T09:16:06;29.60;94.90
45765;DHT22;31474;45.332;10.230;2023-09-07T09:18:32;29.60;94.00
45765;DHT22;31474;45.332;10.230;2023-09-07T09:20:58;29.60;94.40
45765;DHT22;31474;45.332;10.230;2023-09-07T09:23:34;29.80;93.80
45765;DHT22;31474;45.332;10.230;2023-09-07T09:26:01;29.70;94.40
45765;DHT22;31474;45.332;10.230;2023-09-07T09:28:27;29.70;94.60
45765;DHT22;31474;45.332;10.230;2023-09-07T09:30:53;29.80;94.40
45765;DHT22;31474;45.332;10.230;2023-09-07T09:33:20;29.60;93.20
45765;DHT22;31474;45.332;10.230;2023-09-07T09:35:47;29.60;93.50
45765;DHT22;31474;45.332;10.230;2023-09-07T09:38:13;29.60;93.30
45765;DHT22;31474;45.332;10.230;2023-09-07T09:40:40;29.60;92.90
45765;DHT22;31474;45.332;10.230;2023-09-07T09:43:05;29.60;93.00
45765;DHT22;31474;45.332;10.230;2023-09-07T09:45:32;29.60;92.20
45765;DHT22;31474;45.332;10.230;2023-09-07T09:47:58;29.50;92.30
45765;DHT22;31474;45.332;10.230;2023-09-07T09:50:27;29.50;91.10
45765;DHT22;31474;45.332;10.230;2023-09-07T09:52:53;29.40;91.10
45765;DHT22;31474;45.332;10.230;2023-09-07T09:55:19;29.20;90.70
45765;DHT22;31474;45.332;10.230;2023-09-07T09:57:45;29.10;91.00
45765;DHT22;31474;45.332;10.230;2023-09-07T10:00:11;29.20;91.80
45765;DHT22;31474;45.332;10.230;2023-09-07T10:03:12;29.20;91.90
45765;DHT22;31474;45.332;10.230;2023-09-07T10:05:39;29.20;91.20
45765;DHT22;31474;45.332;10.230;2023-09-07T10:08:11;29.30;91.60
45765;DHT22;31474;45.332;10.230;2023-09-07T10:10:38;29.30;91.50
45765;DHT22;31474;45.332;10.230;2023-09-07T10:13:05;29.20;91.60
45765;DHT22;31474;45.332;10.230;2023-09-07T10:15:31;29.30;92.00
45765;DHT22;31474;45.332;10.230;2023-09-07T10:18:14;29.30;92.40
45765;DHT22;31474;45.332;10.230;2023-09-07T10:20:57;29.30;91.50
45765;DHT22;31474;45.332;10.230;2023-09-07T10:23:44;29.40;91.60
45765;DHT22;31474;45.332;10.230;2023-09-07T10:26:17;29.40;91.20
45765;DHT22;31474;45.332;10.230;2023-09-07T10:28:44;29.20;90.70
45765;DHT22;31474;45.332;10.230;2023-09-07T10:31:17;29.30;92.20
45765;DHT22;31474;45.332;10.230;2023-09-07T10:33:44;29.40;91.50
45765;DHT22;31474;45.332;10.230;2023-09-07T10:36:24;29.40;92.00
45765;DHT22;31474;45.332;10.230;2023-09-07T10:38:50;29.50;90.70
45765;DHT22;31474;45.332;10.230;2023-09-07T10:41:19;29.50;92.00
45765;DHT22;31474;45.332;10.230;2023-09-07T10:43:53;29.60;92.30
45765;DHT22;31474;45.332;10.230;2023-09-07T10:46:20;29.70;91.70
45765;DHT22;31474;45.332;10.230;2023-09-07T10:48:52;29.60;91.00
45765;DHT22;31474;45.332;10.230;2023-09-07T10:51:21;29.50;91.60
45765;DHT22;31474;45.332;10.230;2023-09-07T10:53:47;29.50;90.30
45765;DHT22;31474;45.332;10.230;2023-09-07T10:56:12;29.50;91.00
45765;DHT22;31474;45.332;10.230;2023-09-07T10:58:39;29.50;91.00
45765;DHT22;31474;45.332;10.230;2023-09-07T11:01:06;29.60;91.30
45765;DHT22;31474;45.332;10.230;2023-09-07T11:03:32;29.70;91.10
45765;DHT22;31474;45.332;10.230;2023-09-07T11:06:10;29.80;91.20
45765;DHT22;31474;45.332;10.230;2023-09-07T11:08:37;29.90;90.90
45765;DHT22;31474;45.332;10.230;2023-09-07T11:11:03;29.90;91.10
45765;DHT22;31474;45.332;10.230;2023-09-07T11:13:29;29.60;90.60
45765;DHT22;31474;45.332;10.230;2023-09-07T11:15:57;29.60;91.00
45765;DHT22;31474;45.332;10.230;2023-09-07T11:18:23;29.60;90.40
45765;DHT22;31474;45.332;10.230;2023-09-07T11:20:50;29.70;90.70
45765;DHT22;31474;45.332;10.230;2023-09-07T11:23:20;29.70;90.70
45765;DHT22;31474;45.332;10.230;2023-09-07T11:25:47;29.60;89.60
45765;DHT22;31474;45.332;10.230;2023-09-07T11:28:15;29.50;90.90
45765;DHT22;31474;45.332;10.230;2023-09-07T11:30:54;29.70;90.60
45765;DHT22;31474;45.332;10.230;2023-09-07T11:33:23;29.90;90.00
45765;DHT22;31474;45.332;10.230;2023-09-07T11:35:49;30.00;91.50
45765;DHT22;31474;45.332;10.230;2023-09-07T11:38:16;30.00;90.20
45765;DHT22;31474;45.332;10.230;2023-09-07T11:40:43;30.00;90.60
45765;DHT22;31474;45.332;10.230;2023-09-07T11:43:14;29.80;89.50
45765;DHT22;31474;45.332;10.230;2023-09-07T11:45:41;29.60;89.70
45765;DHT22;31474;45.332;10.230;2023-09-07T11:48:07;29.70;90.40
45765;DHT22;31474;45.332;10.230;2023-09-07T11:50:37;29.80;90.70
45765;DHT22;31474;45.332;10.230;2023-09-07T11:53:03;29.70;89.60
45765;DHT22;31474;45.332;10.230;2023-09-07T11:55:29;29.60;87.70
45765;DHT22;31474;45.332;10.230;2023-09-07T11:57:55;29.70;90.00
45765;DHT22;31474;45.332;10.230;2023-09-07T12:00:20;29.70;88.70
45765;DHT22;31474;45.332;10.230;2023-09-07T12:02:48;29.70;90.00
45765;DHT22;31474;45.332;10.230;2023-09-07T12:05:14;29.80;90.40
45765;DHT22;31474;45.332;10.230;2023-09-07T12:07:41;29.90;90.00
45765;DHT22;31474;45.332;10.230;2023-09-07T12:10:09;29.90;88.50
45765;DHT22;31474;45.332;10.230;2023-09-07T12:12:41;29.90;90.20
45765;DHT22;31474;45.332;10.230;2023-09-07T12:15:08;29.90;88.80
45765;DHT22;31474;45.332;10.230;2023-09-07T12:17:34;29.90;87.80
45765;DHT22;31474;45.332;10.230;2023-09-07T12:20:00;30.00;90.10
45765;DHT22;31474;45.332;10.230;2023-09-07T12:22:27;29.90;89.20
45765;DHT22;31474;45.332;10.230;2023-09-07T12:24:52;30.10;90.00
45765;DHT22;31474;45.332;10.230;2023-09-07T12:27:18;30.30;89.10
45765;DHT22;31474;45.332;10.230;2023-09-07T12:29:44;30.20;90.00
45765;DHT22;31474;45.332;10.230;2023-09-07T12:32:10;30.00;85.50
45765;DHT22;31474;45.332;10.230;2023-09-07T12:34:36;30.00;88.60
45765;DHT22;31474;45.332;10.230;2023-09-07T12:37:02;30.00;87.50
45765;DHT22;31474;45.332;10.230;2023-09-07T12:39:31;30.00;86.80
45765;DHT22;31474;45.332;10.230;2023-09-07T12:41:57;29.90;86.80
45765;DHT22;31474;45.332;10.230;2023-09-07T12:44:23;29.90;86.90
45765;DHT22;31474;45.332;10.230;2023-09-07T12:46:49;29.90;88.20
45765;DHT22;31474;45.332;10.230;2023-09-07T12:49:14;29.80;85.20
45765;DHT22;31474;45.332;10.230;2023-09-07T12:51:41;29.80;84.90
45765;DHT22;31474;45.332;10.230;2023-09-07T12:54:06;29.80;86.80
45765;DHT22;31474;45.332;10.230;2023-09-07T12:56:32;29.90;86.70
45765;DHT22;31474;45.332;10.230;2023-09-07T12:58:58;29.90;86.90
45765;DHT22;31474;45.332;10.230;2023-09-07T13:01:25;30.00;87.70
45765;DHT22;31474;45.332;10.230;2023-09-07T13:03:51;30.10;86.00
45765;DHT22;31474;45.332;10.230;2023-09-07T13:06:17;30.00;84.80
45765;DHT22;31474;45.332;10.230;2023-09-07T13:08:44;30.00;87.20
45765;DHT22;31474;45.332;10.230;2023-09-07T13:11:11;30.00;85.80
45765;DHT22;31474;45.332;10.230;2023-09-07T13:13:37;30.10;87.50
45765;DHT22;31474;45.332;10.230;2023-09-07T13:16:02;30.20;87.10
45765;DHT22;31474;45.332;10.230;2023-09-07T13:18:28;30.20;87.20
45765;DHT22;31474;45.332;10.230;2023-09-07T13:20:54;30.10;85.10
45765;DHT22;31474;45.332;10.230;2023-09-07T13:23:25;30.10;86.70
45765;DHT22;31474;45.332;10.230;2023-09-07T13:25:51;30.00;84.60
45765;DHT22;31474;45.332;10.230;2023-09-07T13:28:17;30.00;84.80
45765;DHT22;31474;45.332;10.230;2023-09-07T13:30:43;30.00;86.50
45765;DHT22;31474;45.332;10.230;2023-09-07T13:33:08;30.00;86.10
45765;DHT22;31474;45.332;10.230;2023-09-07T13:35:34;30.00;86.40
45765;DHT22;31474;45.332;10.230;2023-09-07T13:38:00;30.00;86.20
45765;DHT22;31474;45.332;10.230;2023-09-07T13:40:25;30.00;86.70
45765;DHT22;31474;45.332;10.230;2023-09-07T13:42:55;30.00;86.50
45765;DHT22;31474;45.332;10.230;2023-09-07T13:45:20;30.00;87.40
45765;DHT22;31474;45.332;10.230;2023-09-07T13:47:46;30.00;85.80
45765;DHT22;31474;45.332;10.230;2023-09-07T13:50:12;30.00;86.40
45765;DHT22;31474;45.332;10.230;2023-09-07T13:52:38;30.00;86.60
45765;DHT22;31474;45.332;10.230;2023-09-07T13:55:04;30.00;87.30
45765;DHT22;31474;45.332;10.230;2023-09-07T13:57:30;29.90;86.30
45765;DHT22;31474;45.332;10.230;2023-09-07T13:59:56;29.90;87.30
45765;DHT22;31474;45.332;10.230;2023-09-07T14:02:21;29.90;86.60
45765;DHT22;31474;45.332;10.230;2023-09-07T14:04:47;29.90;87.70
45765;DHT22;31474;45.332;10.230;2023-09-07T14:07:15;29.90;86.10
45765;DHT22;31474;45.332;10.230;2023-09-07T14:09:40;29.90;87.40
45765;DHT22;31474;45.332;10.230;2023-09-07T14:12:06;30.00;86.90
45765;DHT22;31474;45.332;10.230;2023-09-07T14:14:32;30.10;87.40
45765;DHT22;31474;45.332;10.230;2023-09-07T14:16:58;30.00;86.40
45765;DHT22;31474;45.332;10.230;2023-09-07T14:19:25;30.00;87.80
45765;DHT22;31474;45.332;10.230;2023-09-07T14:21:53;29.90;86.20
45765;DHT22;31474;45.332;10.230;2023-09-07T14:24:18;29.90;88.10
45765;DHT22;31474;45.332;10.230;2023-09-07T14:26:44;30.00;87.90
45765;DHT22;31474;45.332;10.230;2023-09-07T14:29:09;30.00;87.40
45765;DHT22;31474;45.332;10.230;2023-09-07T14:31:35;30.00;85.90
45765;DHT22;31474;45.332;10.230;2023-09-07T14:34:01;30.10;87.30
45765;DHT22;31474;45.332;10.230;2023-09-07T14:36:27;30.00;86.50
45765;DHT22;31474;45.332;10.230;2023-09-07T14:38:52;30.00;87.40
45765;DHT22;31474;45.332;10.230;2023-09-07T14:41:18;30.00;87.10
45765;DHT22;31474;45.332;10.230;2023-09-07T14:43:45;29.90;87.00
45765;DHT22;31474;45.332;10.230;2023-09-07T14:46:11;29.90;85.90
45765;DHT22;31474;45.332;10.230;2023-09-07T14:48:37;29.90;87.70
45765;DHT22;31474;45.332;10.230;2023-09-07T14:51:03;29.90;87.40
45765;DHT22;31474;45.332;10.230;2023-09-07T14:53:29;29.90;86.60
45765;DHT22;31474;45.332;10.230;2023-09-07T14:55:55;29.90;86.90
45765;DHT22;31474;45.332;10.230;2023-09-07T14:58:21;29.90;87.90
45765;DHT22;31474;45.332;10.230;2023-09-07T15:00:47;29.80;87.60
45765;DHT22;31474;45.332;10.230;2023-09-07T15:03:12;29.90;87.70
45765;DHT22;31474;45.332;10.230;2023-09-07T15:05:38;29.90;86.50
45765;DHT22;31474;45.332;10.230;2023-09-07T15:08:04;29.80;86.50
45765;DHT22;31474;45.332;10.230;2023-09-07T15:10:32;29.90;86.90
45765;DHT22;31474;45.332;10.230;2023-09-07T15:13:00;29.70;85.70
45765;DHT22;31474;45.332;10.230;2023-09-07T15:15:28;29.80;87.10
45765;DHT22;31474;45.332;10.230;2023-09-07T15:17:54;29.90;86.90